sensor_id;sensor_type;location;lat;lon;timestamp;temperature;humidity
2024;DHT22;1016;48.770;9.154;2024-01-15T00:01:36;4.90;84.50
2024;DHT22;1016;48.770;9.154;2024-01-15T00:04:02;4.90;84.70
2024;DHT22;1016;48.770;9.154;2024-01-15T00:06:28;5.00;84.90
2024;DHT22;1016;48.770;9.154;2024-01-15T00:08:54;5.00;85.00
2024;DHT22;1016;48.770;9.154;2024-01-15T00:11:19;5.10;85.00
2024;DHT22;1016;48.770;9.154;2024-01-15T00:13:45;5.30;85.10
2024;DHT22;1016;48.770;9.154;2024-01-15T00:16:10;5.10;84.50
2024;DHT22;1016;48.770;9.154;2024-01-15T00:18:36;5.10;84.30
2024;DHT22;1016;48.770;9.154;2024-01-15T00:21:01;5.10;84.40
2024;DHT22;1016;48.770;9.154;2024-01-15T00:23:27;5.10;84.60
2024;DHT22;1016;48.770;9.154;2024-01-15T00:25:53;5.20;84.80
2024;DHT22;1016;48.770;9.154;2024-01-15T00:28:18;5.20;84.80
2024;DHT22;1016;48.770;9.154;2024-01-15T00:30:44;5.20;85.00
2024;DHT22;1016;48.770;9.154;2024-01-15T00:33:09;5.20;84.70
2024;DHT22;1016;48.770;9.154;2024-01-15T00:35:37;5.20;84.70
2024;DHT22;1016;48.770;9.154;2024-01-15T00:38:03;5.20;84.80
2024;DHT22;1016;48.770;9.154;2024-01-15T00:40:28;5.20;84.70
2024;DHT22;1016;48.770;9.154;2024-01-15T00:42:54;5.20;84.80
2024;DHT22;1016;48.770;9.154;2024-01-15T00:45:19;5.30;84.90
2024;DHT22;1016;48.770;9.154;2024-01-15T00:47:45;5.30;84.70
2024;DHT22;1016;48.770;9.154;2024-01-15T00:50:11;5.30;84.60
2024;DHT22;1016;48.770;9.154;2024-01-15T00:52:36;5.30;84.70
2024;DHT22;1016;48.770;9.154;2024-01-15T00:55:02;5.30;84.80
2024;DHT22;1016;48.770;9.154;2024-01-15T00:57:27;5.30;84.80
2024;DHT22;1016;48.770;9.154;2024-01-15T00:59:53;5.30;84.70
2024;DHT22;1016;48.770;9.154;2024-01-15T01:02:18;5.30;84.90
2024;DHT22;1016;48.770;9.154;2024-01-15T01:04:44;5.30;84.90
2024;DHT22;1016;48.770;9.154;2024-01-15T01:07:10;5.30;84.70
2024;DHT22;1016;48.770;9.154;2024-01-15T01:09:35;5.30;85.00
2024;DHT22;1016;48.770;9.154;2024-01-15T01:12:01;5.30;85.20
2024;DHT22;1016;48.770;9.154;2024-01-15T01:14:26;5.30;85.30
2024;DHT22;1016;48.770;9.154;2024-01-15T01:16:52;5.30;85.20
2024;DHT22;1016;48.770;9.154;2024-01-15T01:19:17;5.40;85.40
2024;DHT22;1016;48.770;9.154;2024-01-15T01:21:43;5.30;85.50
2024;DHT22;1016;48.770;9.154;2024-01-15T01:24:08;5.30;85.70
2024;DHT22;1016;48.770;9.154;2024-01-15T01:26:34;5.30;85.70
2024;DHT22;1016;48.770;9.154;2024-01-15T01:29:00;5.30;85.90
2024;DHT22;1016;48.770;9.154;2024-01-15T01:31:25;5.30;85.90
2024;DHT22;1016;48.770;9.154;2024-01-15T01:33:51;5.30;85.90
2024;DHT22;1016;48.770;9.154;2024-01-15T01:36:16;5.30;86.00
2024;DHT22;1016;48.770;9.154;2024-01-15T01:38:42;5.30;86.10
2024;DHT22;1016;48.770;9.154;2024-01-15T01:41:08;5.30;86.10
2024;DHT22;1016;48.770;9.154;2024-01-15T01:43:33;5.30;86.20
2024;DHT22;1016;48.770;9.154;2024-01-15T01:46:03;5.30;86.20
2024;DHT22;1016;48.770;9.154;2024-01-15T01:48:29;5.50;86.50
2024;DHT22;1016;48.770;9.154;2024-01-15T01:50:58;5.30;86.40
2024;DHT22;1016;48.770;9.154;2024-01-15T01:53:26;5.40;86.70
2024;DHT22;1016;48.770;9.154;2024-01-15T01:55:52;5.40;86.60
2024;DHT22;1016;48.770;9.154;2024-01-15T01:58:19;5.40;86.70
2024;DHT22;1016;48.770;9.154;2024-01-15T02:00:46;5.40;86.70
2024;DHT22;1016;48.770;9.154;2024-01-15T02:03:12;5.40;86.80
2024;DHT22;1016;48.770;9.154;2024-01-15T02:05:39;5.40;86.80
2024;DHT22;1016;48.770;9.154;2024-01-15T02:08:05;5.40;86.90
2024;DHT22;1016;48.770;9.154;2024-01-15T02:10:31;5.40;86.90
2024;DHT22;1016;48.770;9.154;2024-01-15T02:12:56;5.50;87.10
2024;DHT22;1016;48.770;9.154;2024-01-15T02:15:22;5.50;87.10
2024;DHT22;1016;48.770;9.154;2024-01-15T02:18:04;5.50;87.10
2024;DHT22;1016;48.770;9.154;2024-01-15T02:20:31;5.50;87.20
2024;DHT22;1016;48.770;9.154;2024-01-15T02:25:34;5.50;87.20
2024;DHT22;1016;48.770;9.154;2024-01-15T02:27:59;5.50;87.20
2024;DHT22;1016;48.770;9.154;2024-01-15T02:30:25;5.50;87.20
2024;DHT22;1016;48.770;9.154;2024-01-15T02:32:51;5.50;87.20
2024;DHT22;1016;48.770;9.154;2024-01-15T02:35:17;5.50;87.20
2024;DHT22;1016;48.770;9.154;2024-01-15T02:37:43;5.60;87.20
2024;DHT22;1016;48.770;9.154;2024-01-15T02:40:09;5.50;87.10
2024;DHT22;1016;48.770;9.154;2024-01-15T02:42:34;5.60;87.30
2024;DHT22;1016;48.770;9.154;2024-01-15T02:45:00;5.60;87.30
2024;DHT22;1016;48.770;9.154;2024-01-15T02:47:26;5.60;87.10
2024;DHT22;1016;48.770;9.154;2024-01-15T02:49:51;5.60;87.00
2024;DHT22;1016;48.770;9.154;2024-01-15T02:52:17;5.60;87.00
2024;DHT22;1016;48.770;9.154;2024-01-15T02:54:43;5.60;87.00
2024;DHT22;1016;48.770;9.154;2024-01-15T02:57:08;5.50;87.00
2024;DHT22;1016;48.770;9.154;2024-01-15T02:59:34;5.60;87.10
2024;DHT22;1016;48.770;9.154;2024-01-15T03:01:59;5.60;87.10
2024;DHT22;1016;48.770;9.154;2024-01-15T03:04:25;5.60;87.20
2024;DHT22;1016;48.770;9.154;2024-01-15T03:06:51;5.60;87.10
2024;DHT22;1016;48.770;9.154;2024-01-15T03:09:16;5.60;87.30
2024;DHT22;1016;48.770;9.154;2024-01-15T03:11:42;5.60;87.10
2024;DHT22;1016;48.770;9.154;2024-01-15T03:14:08;5.50;87.00
2024;DHT22;1016;48.770;9.154;2024-01-15T03:16:33;5.50;87.10
2024;DHT22;1016;48.770;9.154;2024-01-15T03:18:59;5.50;87.10
2024;DHT22;1016;48.770;9.154;2024-01-15T03:21:24;5.50;87.00
2024;DHT22;1016;48.770;9.154;2024-01-15T03:23:50;5.50;87.10
2024;DHT22;1016;48.770;9.154;2024-01-15T03:26:18;5.60;87.00
2024;DHT22;1016;48.770;9.154;2024-01-15T03:28:44;5.70;87.30
2024;DHT22;1016;48.770;9.154;2024-01-15T03:31:10;5.50;87.20
2024;DHT22;1016;48.770;9.154;2024-01-15T03:33:35;5.60;88.10
2024;DHT22;1016;48.770;9.154;2024-01-15T03:36:01;5.60;87.30
2024;DHT22;1016;48.770;9.154;2024-01-15T03:38:29;5.60;87.30
2024;DHT22;1016;48.770;9.154;2024-01-15T03:40:55;5.60;87.30
2024;DHT22;1016;48.770;9.154;2024-01-15T03:43:20;5.60;87.20
2024;DHT22;1016;48.770;9.154;2024-01-15T03:45:46;5.70;87.10
2024;DHT22;1016;48.770;9.154;2024-01-15T03:48:11;5.70;87.00
2024;DHT22;1016;48.770;9.154;2024-01-15T03:50:37;5.80;87.00
2024;DHT22;1016;48.770;9.154;2024-01-15T03:53:03;5.80;86.80
2024;DHT22;1016;48.770;9.154;2024-01-15T03:55:29;5.80;86.80
2024;DHT22;1016;48.770;9.154;2024-01-15T03:57:57;5.80;86.60
2024;DHT22;1016;48.770;9.154;2024-01-15T04:00:22;5.80;86.90
2024;DHT22;1016;48.770;9.154;2024-01-15T04:02:48;5.90;86.90
2024;DHT22;1016;48.770;9.154;2024-01-15T04:05:13;5.90;87.00
2024;DHT22;1016;48.770;9.154;2024-01-15T04:07:39;5.90;86.90
2024;DHT22;1016;48.770;9.154;2024-01-15T04:10:05;5.90;86.90
2024;DHT22;1016;48.770;9.154;2024-01-15T04:12:31;5.90;87.10
2024;DHT22;1016;48.770;9.154;2024-01-15T04:14:56;5.90;87.00
2024;DHT22;1016;48.770;9.154;2024-01-15T04:17:22;5.90;86.80
2024;DHT22;1016;48.770;9.154;2024-01-15T04:19:48;5.90;87.10
2024;DHT22;1016;48.770;9.154;2024-01-15T04:22:13;5.90;87.00
2024;DHT22;1016;48.770;9.154;2024-01-15T04:24:39;5.90;87.00
2024;DHT22;1016;48.770;9.154;2024-01-15T04:27:06;5.90;87.10
2024;DHT22;1016;48.770;9.154;2024-01-15T04:29:32;5.90;87.10
2024;DHT22;1016;48.770;9.154;2024-01-15T04:31:57;5.90;87.30
2024;DHT22;1016;48.770;9.154;2024-01-15T04:34:23;5.90;87.40
2024;DHT22;1016;48.770;9.154;2024-01-15T04:36:49;5.90;87.40
2024;DHT22;1016;48.770;9.154;2024-01-15T04:39:14;5.90;87.40
2024;DHT22;1016;48.770;9.154;2024-01-15T04:41:40;5.90;87.60
2024;DHT22;1016;48.770;9.154;2024-01-15T04:44:05;6.00;87.70
2024;DHT22;1016;48.770;9.154;2024-01-15T04:46:31;6.00;87.70
2024;DHT22;1016;48.770;9.154;2024-01-15T04:48:56;6.00;87.80
2024;DHT22;1016;48.770;9.154;2024-01-15T04:51:22;6.00;87.80
2024;DHT22;1016;48.770;9.154;2024-01-15T04:53:47;6.00;87.70
2024;DHT22;1016;48.770;9.154;2024-01-15T04:56:13;6.00;87.80
2024;DHT22;1016;48.770;9.154;2024-01-15T04:58:39;6.00;87.70
2024;DHT22;1016;48.770;9.154;2024-01-15T05:01:04;6.00;87.70
2024;DHT22;1016;48.770;9.154;2024-01-15T05:03:30;6.00;87.90
2024;DHT22;1016;48.770;9.154;2024-01-15T05:05:55;6.00;87.80
2024;DHT22;1016;48.770;9.154;2024-01-15T05:08:21;6.00;87.70
2024;DHT22;1016;48.770;9.154;2024-01-15T05:10:47;6.00;87.50
2024;DHT22;1016;48.770;9.154;2024-01-15T05:13:13;6.00;87.60
2024;DHT22;1016;48.770;9.154;2024-01-15T05:15:38;5.90;87.80
2024;DHT22;1016;48.770;9.154;2024-01-15T05:18:04;5.90;88.20
2024;DHT22;1016;48.770;9.154;2024-01-15T05:20:30;5.90;88.40
2024;DHT22;1016;48.770;9.154;2024-01-15T05:22:56;5.90;88.60
2024;DHT22;1016;48.770;9.154;2024-01-15T05:25:22;5.90;88.70
2024;DHT22;1016;48.770;9.154;2024-01-15T05:27:48;6.00;89.10
2024;DHT22;1016;48.770;9.154;2024-01-15T05:30:14;6.00;88.80
2024;DHT22;1016;48.770;9.154;2024-01-15T05:32:39;6.00;88.70
2024;DHT22;1016;48.770;9.154;2024-01-15T05:35:05;6.00;89.00
2024;DHT22;1016;48.770;9.154;2024-01-15T05:37:31;6.00;89.00
2024;DHT22;1016;48.770;9.154;2024-01-15T05:39:56;6.00;89.00
2024;DHT22;1016;48.770;9.154;2024-01-15T05:42:22;6.00;89.00
2024;DHT22;1016;48.770;9.154;2024-01-15T05:44:47;6.00;89.20
2024;DHT22;1016;48.770;9.154;2024-01-15T05:47:13;6.00;89.10
2024;DHT22;1016;48.770;9.154;2024-01-15T05:49:38;6.00;88.90
2024;DHT22;1016;48.770;9.154;2024-01-15T05:52:04;6.00;89.10
2024;DHT22;1016;48.770;9.154;2024-01-15T05:54:30;6.00;88.90
2024;DHT22;1016;48.770;9.154;2024-01-15T05:56:55;6.10;89.10
2024;DHT22;1016;48.770;9.154;2024-01-15T05:59:21;6.00;89.20
2024;DHT22;1016;48.770;9.154;2024-01-15T06:01:46;6.10;89.10
2024;DHT22;1016;48.770;9.154;2024-01-15T06:04:12;6.00;89.00
2024;DHT22;1016;48.770;9.154;2024-01-15T06:06:37;6.00;89.10
2024;DHT22;1016;48.770;9.154;2024-01-15T06:09:03;6.10;89.20
2024;DHT22;1016;48.770;9.154;2024-01-15T06:11:31;6.00;89.10
2024;DHT22;1016;48.770;9.154;2024-01-15T06:13:57;6.10;89.10
2024;DHT22;1016;48.770;9.154;2024-01-15T06:16:24;6.10;89.00
2024;DHT22;1016;48.770;9.154;2024-01-15T06:18:49;6.10;89.00
2024;DHT22;1016;48.770;9.154;2024-01-15T06:21:16;6.10;89.00
2024;DHT22;1016;48.770;9.154;2024-01-15T06:23:41;6.10;89.00
2024;DHT22;1016;48.770;9.154;2024-01-15T06:26:07;6.10;89.00
2024;DHT22;1016;48.770;9.154;2024-01-15T06:28:32;6.20;89.10
2024;DHT22;1016;48.770;9.154;2024-01-15T06:30:58;6.10;88.90
2024;DHT22;1016;48.770;9.154;2024-01-15T06:33:24;6.10;89.00
2024;DHT22;1016;48.770;9.154;2024-01-15T06:35:50;6.20;89.10
2024;DHT22;1016;48.770;9.154;2024-01-15T06:38:16;6.20;89.00
2024;DHT22;1016;48.770;9.154;2024-01-15T06:40:41;6.20;89.00
2024;DHT22;1016;48.770;9.154;2024-01-15T06:43:12;6.20;89.10
2024;DHT22;1016;48.770;9.154;2024-01-15T06:45:38;6.30;89.10
2024;DHT22;1016;48.770;9.154;2024-01-15T06:48:04;6.30;88.90
2024;DHT22;1016;48.770;9.154;2024-01-15T06:50:30;6.30;88.90
2024;DHT22;1016;48.770;9.154;2024-01-15T06:52:55;6.30;88.70
2024;DHT22;1016;48.770;9.154;2024-01-15T06:55:21;6.30;88.70
2024;DHT22;1016;48.770;9.154;2024-01-15T06:57:47;6.30;88.80
2024;DHT22;1016;48.770;9.154;2024-01-15T07:00:13;6.30;88.40
2024;DHT22;1016;48.770;9.154;2024-01-15T07:02:38;6.30;88.60
2024;DHT22;1016;48.770;9.154;2024-01-15T07:05:04;6.30;88.40
2024;DHT22;1016;48.770;9.154;2024-01-15T07:07:31;6.20;88.20
2024;DHT22;1016;48.770;9.154;2024-01-15T07:09:56;6.20;88.20
2024;DHT22;1016;48.770;9.154;2024-01-15T07:12:22;6.20;88.20
2024;DHT22;1016;48.770;9.154;2024-01-15T07:14:49;6.20;88.10
2024;DHT22;1016;48.770;9.154;2024-01-15T07:17:15;6.20;87.90
2024;DHT22;1016;48.770;9.154;2024-01-15T07:19:40;6.20;87.50
2024;DHT22;1016;48.770;9.154;2024-01-15T07:22:06;6.20;87.90
2024;DHT22;1016;48.770;9.154;2024-01-15T07:24:32;6.20;88.10
2024;DHT22;1016;48.770;9.154;2024-01-15T07:27:00;6.20;88.10
2024;DHT22;1016;48.770;9.154;2024-01-15T07:29:25;6.20;87.60
2024;DHT22;1016;48.770;9.154;2024-01-15T07:31:51;6.40;88.00
2024;DHT22;1016;48.770;9.154;2024-01-15T07:34:17;6.20;87.80
2024;DHT22;1016;48.770;9.154;2024-01-15T07:36:46;6.20;87.80
2024;DHT22;1016;48.770;9.154;2024-01-15T07:39:11;6.20;87.70
2024;DHT22;1016;48.770;9.154;2024-01-15T07:41:38;6.20;87.60
2024;DHT22;1016;48.770;9.154;2024-01-15T07:44:04;6.20;87.80
2024;DHT22;1016;48.770;9.154;2024-01-15T07:46:29;6.20;87.70
2024;DHT22;1016;48.770;9.154;2024-01-15T07:48:55;6.20;88.10
2024;DHT22;1016;48.770;9.154;2024-01-15T07:51:25;6.30;87.90
2024;DHT22;1016;48.770;9.154;2024-01-15T07:53:53;6.00;87.80
2024;DHT22;1016;48.770;9.154;2024-01-15T07:56:20;6.00;87.70
2024;DHT22;1016;48.770;9.154;2024-01-15T07:58:46;6.00;88.00
2024;DHT22;1016;48.770;9.154;2024-01-15T08:01:15;5.90;87.80
2024;DHT22;1016;48.770;9.154;2024-01-15T08:03:43;6.10;88.00
2024;DHT22;1016;48.770;9.154;2024-01-15T08:06:09;6.10;88.10
2024;DHT22;1016;48.770;9.154;2024-01-15T08:08:42;6.10;88.30
2024;DHT22;1016;48.770;9.154;2024-01-15T08:11:11;6.00;88.30
2024;DHT22;1016;48.770;9.154;2024-01-15T08:13:37;6.00;88.00
2024;DHT22;1016;48.770;9.154;2024-01-15T08:16:03;6.00;87.80
2024;DHT22;1016;48.770;9.154;2024-01-15T08:18:32;6.00;87.70
2024;DHT22;1016;48.770;9.154;2024-01-15T08:20:58;6.00;87.80
2024;DHT22;1016;48.770;9.154;2024-01-15T08:23:26;6.00;87.10
2024;DHT22;1016;48.770;9.154;2024-01-15T08:25:53;6.10;87.40
2024;DHT22;1016;48.770;9.154;2024-01-15T08:28:19;6.10;87.00
2024;DHT22;1016;48.770;9.154;2024-01-15T08:30:44;6.10;87.20
2024;DHT22;1016;48.770;9.154;2024-01-15T08:33:10;6.00;87.20
2024;DHT22;1016;48.770;9.154;2024-01-15T08:35:36;5.90;86.50
2024;DHT22;1016;48.770;9.154;2024-01-15T08:38:02;5.90;86.90
2024;DHT22;1016;48.770;9.154;2024-01-15T08:40:28;6.00;87.30
2024;DHT22;1016;48.770;9.154;2024-01-15T08:42:53;6.10;87.50
2024;DHT22;1016;48.770;9.154;2024-01-15T08:45:19;6.00;87.50
2024;DHT22;1016;48.770;9.154;2024-01-15T08:47:45;6.10;87.50
2024;DHT22;1016;48.770;9.154;2024-01-15T08:50:11;6.00;87.30
2024;DHT22;1016;48.770;9.154;2024-01-15T08:52:39;6.10;87.50
2024;DHT22;1016;48.770;9.154;2024-01-15T08:55:07;6.20;87.60
2024;DHT22;1016;48.770;9.154;2024-01-15T08:57:35;6.00;87.20
2024;DHT22;1016;48.770;9.154;2024-01-15T09:00:04;6.20;87.30
2024;DHT22;1016;48.770;9.154;2024-01-15T09:02:34;6.10;87.20
2024;DHT22;1016;48.770;9.154;2024-01-15T09:04:59;6.10;86.80
2024;DHT22;1016;48.770;9.154;2024-01-15T09:07:28;6.30;87.10
2024;DHT22;1016;48.770;9.154;2024-01-15T09:09:55;6.10;86.60
2024;DHT22;1016;48.770;9.154;2024-01-15T09:12:24;6.10;86.90
2024;DHT22;1016;48.770;9.154;2024-01-15T09:14:50;6.30;86.60
2024;DHT22;1016;48.770;9.154;2024-01-15T09:17:17;6.20;87.10
2024;DHT22;1016;48.770;9.154;2024-01-15T09:19:45;6.20;86.50
2024;DHT22;1016;48.770;9.154;2024-01-15T09:22:21;6.40;86.40
2024;DHT22;1016;48.770;9.154;2024-01-15T09:24:47;6.10;85.50
2024;DHT22;1016;48.770;9.154;2024-01-15T09:27:13;6.20;85.70
2024;DHT22;1016;48.770;9.154;2024-01-15T09:29:41;6.40;85.50
2024;DHT22;1016;48.770;9.154;2024-01-15T09:32:08;6.20;85.50
2024;DHT22;1016;48.770;9.154;2024-01-15T09:34:34;6.20;85.20
2024;DHT22;1016;48.770;9.154;2024-01-15T09:37:00;6.30;85.70
2024;DHT22;1016;48.770;9.154;2024-01-15T09:39:35;6.40;85.20
2024;DHT22;1016;48.770;9.154;2024-01-15T09:42:02;6.50;86.00
2024;DHT22;1016;48.770;9.154;2024-01-15T09:44:29;6.30;86.00
2024;DHT22;1016;48.770;9.154;2024-01-15T09:46:55;6.30;85.90
2024;DHT22;1016;48.770;9.154;2024-01-15T09:49:22;6.30;86.00
2024;DHT22;1016;48.770;9.154;2024-01-15T09:51:49;6.40;85.80
2024;DHT22;1016;48.770;9.154;2024-01-15T09:54:19;6.40;85.30
2024;DHT22;1016;48.770;9.154;2024-01-15T09:56:49;6.50;85.50
2024;DHT22;1016;48.770;9.154;2024-01-15T09:59:19;6.40;85.70
2024;DHT22;1016;48.770;9.154;2024-01-15T10:01:46;6.40;85.50
2024;DHT22;1016;48.770;9.154;2024-01-15T10:04:15;6.40;86.00
2024;DHT22;1016;48.770;9.154;2024-01-15T10:06:45;6.60;86.20
2024;DHT22;1016;48.770;9.154;2024-01-15T10:09:12;6.60;86.00
2024;DHT22;1016;48.770;9.154;2024-01-15T10:11:43;6.40;85.90
2024;DHT22;1016;48.770;9.154;2024-01-15T10:14:10;6.40;85.90
2024;DHT22;1016;48.770;9.154;2024-01-15T10:16:38;6.40;86.20
2024;DHT22;1016;48.770;9.154;2024-01-15T10:19:04;6.40;87.00
2024;DHT22;1016;48.770;9.154;2024-01-15T10:21:37;6.40;85.50
2024;DHT22;1016;48.770;9.154;2024-01-15T10:24:04;6.60;86.00
2024;DHT22;1016;48.770;9.154;2024-01-15T10:26:32;6.50;85.80
2024;DHT22;1016;48.770;9.154;2024-01-15T10:28:58;6.50;86.10
2024;DHT22;1016;48.770;9.154;2024-01-15T10:31:27;6.70;86.30
2024;DHT22;1016;48.770;9.154;2024-01-15T10:33:53;6.60;86.40
2024;DHT22;1016;48.770;9.154;2024-01-15T10:36:30;6.50;85.90
2024;DHT22;1016;48.770;9.154;2024-01-15T10:38:57;6.50;85.30
2024;DHT22;1016;48.770;9.154;2024-01-15T10:41:23;6.50;85.40
2024;DHT22;1016;48.770;9.154;2024-01-15T10:43:49;6.50;85.80
2024;DHT22;1016;48.770;9.154;2024-01-15T10:46:14;6.70;86.10
2024;DHT22;1016;48.770;9.154;2024-01-15T10:48:40;6.60;86.30
2024;DHT22;1016;48.770;9.154;2024-01-15T10:51:09;6.60;86.50
2024;DHT22;1016;48.770;9.154;2024-01-15T10:53:38;6.70;86.20
2024;DHT22;1016;48.770;9.154;2024-01-15T10:56:05;6.50;86.10
2024;DHT22;1016;48.770;9.154;2024-01-15T10:58:34;6.60;86.20
2024;DHT22;1016;48.770;9.154;2024-01-15T11:01:01;6.50;86.40
2024;DHT22;1016;48.770;9.154;2024-01-15T11:03:30;6.60;86.60
2024;DHT22;1016;48.770;9.154;2024-01-15T11:05:56;6.70;86.40
2024;DHT22;1016;48.770;9.154;2024-01-15T11:08:22;6.60;86.40
2024;DHT22;1016;48.770;9.154;2024-01-15T11:10:56;6.60;86.40
2024;DHT22;1016;48.770;9.154;2024-01-15T11:13:40;6.70;86.50
2024;DHT22;1016;48.770;9.154;2024-01-15T11:16:10;6.60;87.10
2024;DHT22;1016;48.770;9.154;2024-01-15T11:18:40;6.70;87.60
2024;DHT22;1016;48.770;9.154;2024-01-15T11:23:45;6.50;88.60
2024;DHT22;1016;48.770;9.154;2024-01-15T11:29:06;6.60;89.80
2024;DHT22;1016;48.770;9.154;2024-01-15T11:34:10;6.80;90.00
2024;DHT22;1016;48.770;9.154;2024-01-15T11:41:56;7.10;90.20
2024;DHT22;1016;48.770;9.154;2024-01-15T11:44:22;6.90;90.10
2024;DHT22;1016;48.770;9.154;2024-01-15T11:47:08;7.00;90.20
2024;DHT22;1016;48.770;9.154;2024-01-15T11:52:21;7.00;90.70
2024;DHT22;1016;48.770;9.154;2024-01-15T11:55:27;7.00;90.80
2024;DHT22;1016;48.770;9.154;2024-01-15T11:57:54;7.00;91.00
2024;DHT22;1016;48.770;9.154;2024-01-15T12:00:21;7.00;91.00
2024;DHT22;1016;48.770;9.154;2024-01-15T12:02:48;7.00;91.10
2024;DHT22;1016;48.770;9.154;2024-01-15T12:05:15;7.00;91.20
2024;DHT22;1016;48.770;9.154;2024-01-15T12:07:42;7.00;91.00
2024;DHT22;1016;48.770;9.154;2024-01-15T12:10:16;7.00;91.30
2024;DHT22;1016;48.770;9.154;2024-01-15T12:15:31;7.00;91.00
2024;DHT22;1016;48.770;9.154;2024-01-15T12:17:59;7.00;91.00
2024;DHT22;1016;48.770;9.154;2024-01-15T12:20:26;7.00;91.20
2024;DHT22;1016;48.770;9.154;2024-01-15T12:22:53;7.10;91.40
2024;DHT22;1016;48.770;9.154;2024-01-15T12:25:19;7.00;91.50
2024;DHT22;1016;48.770;9.154;2024-01-15T12:27:45;7.00;91.90
2024;DHT22;1016;48.770;9.154;2024-01-15T12:30:14;7.00;92.00
2024;DHT22;1016;48.770;9.154;2024-01-15T12:32:41;6.90;92.40
2024;DHT22;1016;48.770;9.154;2024-01-15T12:35:07;7.00;92.70
2024;DHT22;1016;48.770;9.154;2024-01-15T12:37:36;7.00;93.00
2024;DHT22;1016;48.770;9.154;2024-01-15T12:40:06;7.00;93.30
2024;DHT22;1016;48.770;9.154;2024-01-15T12:42:33;7.00;93.50
2024;DHT22;1016;48.770;9.154;2024-01-15T12:44:58;7.00;93.70
2024;DHT22;1016;48.770;9.154;2024-01-15T12:47:25;6.90;93.90
2024;DHT22;1016;48.770;9.154;2024-01-15T12:49:52;7.10;94.20
2024;DHT22;1016;48.770;9.154;2024-01-15T12:52:20;7.00;94.30
2024;DHT22;1016;48.770;9.154;2024-01-15T12:54:51;6.90;94.50
2024;DHT22;1016;48.770;9.154;2024-01-15T12:57:17;7.00;94.70
2024;DHT22;1016;48.770;9.154;2024-01-15T12:59:48;7.10;95.00
2024;DHT22;1016;48.770;9.154;2024-01-15T13:02:20;7.00;95.10
2024;DHT22;1016;48.770;9.154;2024-01-15T13:04:46;6.90;95.10
2024;DHT22;1016;48.770;9.154;2024-01-15T13:07:13;7.00;95.10
2024;DHT22;1016;48.770;9.154;2024-01-15T13:09:40;7.00;95.10
2024;DHT22;1016;48.770;9.154;2024-01-15T13:12:13;7.00;95.30
2024;DHT22;1016;48.770;9.154;2024-01-15T13:14:39;7.10;95.60
2024;DHT22;1016;48.770;9.154;2024-01-15T13:17:06;6.90;95.30
2024;DHT22;1016;48.770;9.154;2024-01-15T13:19:32;7.10;95.40
2024;DHT22;1016;48.770;9.154;2024-01-15T13:22:01;6.90;95.40
2024;DHT22;1016;48.770;9.154;2024-01-15T13:24:29;7.00;95.80
2024;DHT22;1016;48.770;9.154;2024-01-15T13:26:55;7.00;95.60
2024;DHT22;1016;48.770;9.154;2024-01-15T13:29:22;6.90;95.80
2024;DHT22;1016;48.770;9.154;2024-01-15T13:31:47;7.00;95.90
2024;DHT22;1016;48.770;9.154;2024-01-15T13:34:16;6.90;96.10
2024;DHT22;1016;48.770;9.154;2024-01-15T13:36:44;6.90;95.80
2024;DHT22;1016;48.770;9.154;2024-01-15T13:39:11;6.80;96.10
2024;DHT22;1016;48.770;9.154;2024-01-15T13:41:37;7.00;96.40
2024;DHT22;1016;48.770;9.154;2024-01-15T13:44:03;7.00;96.50
2024;DHT22;1016;48.770;9.154;2024-01-15T13:46:29;6.90;96.40
2024;DHT22;1016;48.770;9.154;2024-01-15T13:48:59;7.00;96.60
2024;DHT22;1016;48.770;9.154;2024-01-15T13:51:25;7.00;96.50
2024;DHT22;1016;48.770;9.154;2024-01-15T13:53:51;6.90;96.60
2024;DHT22;1016;48.770;9.154;2024-01-15T13:56:21;7.10;96.80
2024;DHT22;1016;48.770;9.154;2024-01-15T13:58:48;6.90;96.70
2024;DHT22;1016;48.770;9.154;2024-01-15T14:01:14;7.10;96.70
2024;DHT22;1016;48.770;9.154;2024-01-15T14:03:42;7.10;96.90
2024;DHT22;1016;48.770;9.154;2024-01-15T14:06:08;6.90;97.20
2024;DHT22;1016;48.770;9.154;2024-01-15T14:08:37;7.00;96.90
2024;DHT22;1016;48.770;9.154;2024-01-15T14:11:09;6.90;97.00
2024;DHT22;1016;48.770;9.154;2024-01-15T14:13:36;7.00;96.90
2024;DHT22;1016;48.770;9.154;2024-01-15T14:16:05;6.90;97.00
2024;DHT22;1016;48.770;9.154;2024-01-15T14:18:30;7.00;97.20
2024;DHT22;1016;48.770;9.154;2024-01-15T14:20:58;6.90;97.10
2024;DHT22;1016;48.770;9.154;2024-01-15T14:23:46;7.00;97.10
2024;DHT22;1016;48.770;9.154;2024-01-15T14:26:15;7.00;97.10
2024;DHT22;1016;48.770;9.154;2024-01-15T14:28:42;7.10;97.40
2024;DHT22;1016;48.770;9.154;2024-01-15T14:31:11;6.90;97.10
2024;DHT22;1016;48.770;9.154;2024-01-15T14:33:41;7.10;97.30
2024;DHT22;1016;48.770;9.154;2024-01-15T14:36:10;7.10;97.00
2024;DHT22;1016;48.770;9.154;2024-01-15T14:38:39;6.70;96.70
2024;DHT22;1016;48.770;9.154;2024-01-15T14:41:10;6.90;96.60
2024;DHT22;1016;48.770;9.154;2024-01-15T14:43:36;7.10;96.70
2024;DHT22;1016;48.770;9.154;2024-01-15T14:46:02;7.10;96.40
2024;DHT22;1016;48.770;9.154;2024-01-15T14:48:30;6.90;96.20
2024;DHT22;1016;48.770;9.154;2024-01-15T14:51:03;6.80;96.10
2024;DHT22;1016;48.770;9.154;2024-01-15T14:53:29;7.00;96.10
2024;DHT22;1016;48.770;9.154;2024-01-15T14:55:55;6.90;96.40
2024;DHT22;1016;48.770;9.154;2024-01-15T14:58:20;6.80;96.50
2024;DHT22;1016;48.770;9.154;2024-01-15T15:00:46;7.00;96.60
2024;DHT22;1016;48.770;9.154;2024-01-15T15:03:18;7.00;96.70
2024;DHT22;1016;48.770;9.154;2024-01-15T15:05:43;6.90;96.50
2024;DHT22;1016;48.770;9.154;2024-01-15T15:08:10;6.80;96.40
2024;DHT22;1016;48.770;9.154;2024-01-15T15:10:37;6.90;96.40
2024;DHT22;1016;48.770;9.154;2024-01-15T15:13:04;6.90;96.50
2024;DHT22;1016;48.770;9.154;2024-01-15T15:15:29;7.00;96.50
2024;DHT22;1016;48.770;9.154;2024-01-15T15:17:55;7.10;96.00
2024;DHT22;1016;48.770;9.154;2024-01-15T15:20:23;7.00;95.50
2024;DHT22;1016;48.770;9.154;2024-01-15T15:22:48;6.80;95.70
2024;DHT22;1016;48.770;9.154;2024-01-15T15:25:14;6.80;95.60
2024;DHT22;1016;48.770;9.154;2024-01-15T15:27:39;6.80;95.50
2024;DHT22;1016;48.770;9.154;2024-01-15T15:30:07;6.80;95.50
2024;DHT22;1016;48.770;9.154;2024-01-15T15:32:32;6.80;95.40
2024;DHT22;1016;48.770;9.154;2024-01-15T15:34:58;6.80;95.40
2024;DHT22;1016;48.770;9.154;2024-01-15T15:37:24;6.70;95.40
2024;DHT22;1016;48.770;9.154;2024-01-15T15:39:49;6.70;95.30
2024;DHT22;1016;48.770;9.154;2024-01-15T15:42:15;6.70;95.30
2024;DHT22;1016;48.770;9.154;2024-01-15T15:44:41;6.70;94.90
2024;DHT22;1016;48.770;9.154;2024-01-15T15:47:17;6.90;95.00
2024;DHT22;1016;48.770;9.154;2024-01-15T15:49:42;6.70;95.10
2024;DHT22;1016;48.770;9.154;2024-01-15T15:52:08;6.70;95.10
2024;DHT22;1016;48.770;9.154;2024-01-15T15:54:34;6.70;94.70
2024;DHT22;1016;48.770;9.154;2024-01-15T15:57:00;6.70;94.40
2024;DHT22;1016;48.770;9.154;2024-01-15T15:59:25;6.80;94.50
2024;DHT22;1016;48.770;9.154;2024-01-15T16:01:52;6.70;94.50
2024;DHT22;1016;48.770;9.154;2024-01-15T16:04:17;6.70;94.40
2024;DHT22;1016;48.770;9.154;2024-01-15T16:06:43;6.70;94.40
2024;DHT22;1016;48.770;9.154;2024-01-15T16:09:12;6.90;94.30
2024;DHT22;1016;48.770;9.154;2024-01-15T16:11:38;6.70;94.10
2024;DHT22;1016;48.770;9.154;2024-01-15T16:14:04;6.70;93.60
2024;DHT22;1016;48.770;9.154;2024-01-15T16:16:30;6.80;93.80
2024;DHT22;1016;48.770;9.154;2024-01-15T16:18:56;6.70;93.60
2024;DHT22;1016;48.770;9.154;2024-01-15T16:21:22;6.60;93.30
2024;DHT22;1016;48.770;9.154;2024-01-15T16:23:48;6.60;93.00
2024;DHT22;1016;48.770;9.154;2024-01-15T16:26:13;6.70;93.10
2024;DHT22;1016;48.770;9.154;2024-01-15T16:28:39;6.60;93.00
2024;DHT22;1016;48.770;9.154;2024-01-15T16:31:05;6.60;93.20
2024;DHT22;1016;48.770;9.154;2024-01-15T16:33:30;6.60;93.30
2024;DHT22;1016;48.770;9.154;2024-01-15T16:35:56;6.60;93.40